Time;durP1;ratioP1;P1;durP2;ratioP2;P2;SDS_P1;SDS_P2;PMS_P1;PMS_P2;Temp;Humidity;BMP_temperature;BMP_pressure;BME280_temperature;BME280_humidity;BME280_pressure;Samples;Min_cycle;Max_cycle;Signal;HPM_P1;HPM_P2
2022/05/01 00:01:42;;;;;;;13.20;10.00;;;15.70;54.40;;;;;;4997056;28;20066;-16
2022/05/01 00:04:09;;;;;;;13.80;9.27;;;15.70;55.00;;;;;;4996800;28;20076;-16
2022/05/01 00:06:36;;;;;;;16.50;10.38;;;15.60;54.90;;;;;;4997015;28;20437;-16
2022/05/01 00:09:03;;;;;;;19.13;12.63;;;15.60;55.00;;;;;;4997537;28;20049;-16
2022/05/01 00:11:30;;;;;;;16.60;11.38;;;15.60;58.30;;;;;;4996643;28;20053;-16
2022/05/01 00:13:59;;;;;;;15.98;9.93;;;15.50;58.40;;;;;;4996861;28;20026;-17
2022/05/01 00:16:26;;;;;;;16.77;11.40;;;15.40;56.80;;;;;;4996906;28;20031;-12
2022/05/01 00:18:52;;;;;;;18.00;11.20;;;15.40;56.30;;;;;;4996765;28;20112;-15
2022/05/01 00:21:18;;;;;;;14.40;10.13;;;15.40;56.10;;;;;;4996815;28;20364;-15
2022/05/01 00:23:44;;;;;;;16.33;9.95;;;15.50;56.20;;;;;;4996881;28;20034;-16
2022/05/01 00:26:11;;;;;;;13.68;10.18;;;15.40;58.00;;;;;;4997181;28;20041;-15
2022/05/01 00:28:38;;;;;;;15.70;10.63;;;15.40;57.00;;;;;;4996339;28;20029;-15
2022/05/01 00:31:06;;;;;;;18.38;12.85;;;15.40;57.70;;;;;;4996514;28;20561;-17
2022/05/01 00:36:26;;;;;;;15.50;10.70;;;15.10;57.80;;;;;;4996672;28;20029;-15
2022/05/01 00:39:06;;;;;;;17.55;11.73;;;15.10;58.10;;;;;;4996799;28;20073;-15
2022/05/01 00:41:37;;;;;;;12.05;9.55;;;15.00;58.50;;;;;;4996229;28;20027;-15
2022/05/01 00:44:09;;;;;;;11.73;8.52;;;15.00;58.20;;;;;;4996273;28;20038;-12
2022/05/01 00:46:46;;;;;;;12.02;9.63;;;15.00;57.80;;;;;;4996394;28;20112;-14
2022/05/01 00:49:19;;;;;;;14.55;9.88;;;15.10;57.80;;;;;;4996305;28;20033;-15
2022/05/01 00:51:50;;;;;;;13.15;10.20;;;15.10;57.90;;;;;;4996417;28;20049;-16
2022/05/01 00:54:17;;;;;;;14.32;8.82;;;15.10;58.60;;;;;;4996198;28;20026;-15
2022/05/01 00:56:47;;;;;;;13.57;9.00;;;15.10;58.20;;;;;;4996371;28;20041;-14
2022/05/01 00:59:14;;;;;;;11.10;8.57;;;15.10;58.30;;;;;;4994818;28;20541;-14
2022/05/01 01:01:45;;;;;;;14.95;9.48;;;15.00;58.20;;;;;;4996316;28;20393;-16
2022/05/01 01:04:11;;;;;;;14.40;9.98;;;15.10;58.20;;;;;;4995575;28;20034;-20
2022/05/01 01:06:38;;;;;;;12.98;8.85;;;15.10;58.20;;;;;;4995941;28;20034;-16
2022/05/01 01:09:05;;;;;;;17.73;11.85;;;15.10;58.30;;;;;;4995167;28;20393;-14
2022/05/01 01:11:31;;;;;;;14.13;10.65;;;15.00;58.50;;;;;;4996084;28;20038;-16
2022/05/01 01:13:59;;;;;;;16.63;11.70;;;15.00;58.50;;;;;;4995840;28;20556;-14
2022/05/01 01:16:25;;;;;;;16.48;11.93;;;15.00;58.90;;;;;;4995586;28;20022;-13
2022/05/01 01:18:52;;;;;;;14.63;10.82;;;14.90;59.00;;;;;;4995647;28;20393;-16
2022/05/01 01:21:21;;;;;;;14.77;10.20;;;14.90;59.10;;;;;;4995722;28;20371;-15
2022/05/01 01:23:47;;;;;;;16.05;11.57;;;14.90;59.00;;;;;;4995739;28;20513;-15
2022/05/01 01:26:14;;;;;;;13.02;9.20;;;14.90;59.60;;;;;;4995709;28;20118;-18
2022/05/01 01:28:42;;;;;;;16.73;11.20;;;14.90;59.70;;;;;;4995464;28;20026;-14
2022/05/01 01:34:03;;;;;;;13.65;9.07;;;14.90;59.50;;;;;;4995823;28;20597;-14
2022/05/01 01:36:35;;;;;;;12.75;9.15;;;14.90;59.50;;;;;;4995314;28;20106;-14
2022/05/01 01:39:01;;;;;;;18.02;11.75;;;14.80;59.60;;;;;;4995332;28;20113;-14
2022/05/01 01:41:29;;;;;;;15.10;10.60;;;14.90;59.70;;;;;;4995303;28;20058;-15
2022/05/01 01:43:56;;;;;;;21.58;11.13;;;14.90;60.00;;;;;;4995294;28;20113;-13
2022/05/01 01:46:22;;;;;;;19.30;11.43;;;14.90;60.80;;;;;;4994886;28;20501;-14
2022/05/01 01:48:50;;;;;;;14.68;10.73;;;14.90;60.50;;;;;;4995578;28;20085;-15
2022/05/01 01:51:17;;;;;;;18.52;11.82;;;14.90;60.60;;;;;;4994973;28;20048;-14
2022/05/01 01:53:44;;;;;;;15.88;10.57;;;14.80;60.90;;;;;;4994964;28;20117;-13
2022/05/01 01:56:11;;;;;;;15.32;10.80;;;14.80;60.90;;;;;;4995137;28;20034;-13
2022/05/01 01:58:39;;;;;;;12.45;9.05;;;14.70;60.80;;;;;;4994612;28;20045;-16
2022/05/01 02:01:07;;;;;;;12.95;9.75;;;14.80;61.00;;;;;;4994806;28;20041;-16
2022/05/01 02:03:33;;;;;;;13.93;9.32;;;14.70;61.40;;;;;;4994716;28;20394;-15
2022/05/01 02:06:00;;;;;;;14.73;10.60;;;14.60;61.20;;;;;;4994465;28;20418;-15
2022/05/01 02:08:27;;;;;;;16.92;10.57;;;14.70;61.50;;;;;;4995072;28;20104;-15
2022/05/01 02:10:53;;;;;;;14.25;10.43;;;14.60;61.60;;;;;;4994671;28;20390;-14
2022/05/01 02:13:19;;;;;;;15.05;10.88;;;14.60;61.60;;;;;;4994636;28;20026;-11
2022/05/01 02:15:45;;;;;;;18.88;13.23;;;14.60;61.50;;;;;;4994595;28;20034;-13
2022/05/01 02:18:11;;;;;;;15.10;9.30;;;14.60;61.50;;;;;;4994664;28;20033;-16
2022/05/01 02:23:24;;;;;;;12.60;8.60;;;14.50;61.60;;;;;;4994849;28;20041;-15
2022/05/01 02:25:51;;;;;;;14.45;10.13;;;14.40;61.90;;;;;;4994429;28;20022;-14
2022/05/01 02:28:17;;;;;;;14.23;8.80;;;14.40;62.00;;;;;;4994118;28;20383;-14
2022/05/01 02:30:44;;;;;;;12.50;8.75;;;14.40;62.30;;;;;;4994998;28;20030;-17
2022/05/01 02:33:11;;;;;;;20.75;12.57;;;14.40;62.60;;;;;;4994573;28;20025;-16
2022/05/01 02:35:38;;;;;;;14.32;8.93;;;14.40;62.70;;;;;;4994105;28;20034;-16
2022/05/01 02:38:05;;;;;;;14.90;10.10;;;14.30;62.90;;;;;;4994346;28;20019;-16
2022/05/01 02:40:32;;;;;;;13.98;9.45;;;14.20;63.10;;;;;;4993933;28;20034;-17
2022/05/01 02:42:59;;;;;;;15.23;10.55;;;14.20;63.00;;;;;;4993950;28;20034;-15
2022/05/01 02:45:26;;;;;;;15.73;10.95;;;14.20;63.20;;;;;;4994716;28;20030;-15
2022/05/01 02:47:53;;;;;;;14.25;9.10;;;14.10;63.30;;;;;;4994054;28;20033;-16
2022/05/01 02:50:19;;;;;;;14.10;9.80;;;14.20;63.40;;;;;;4994015;28;20422;-16
2022/05/01 02:52:45;;;;;;;12.25;9.05;;;14.10;63.40;;;;;;4994321;28;20026;-16
2022/05/01 02:55:12;;;;;;;11.93;8.93;;;14.10;63.40;;;;;;4993945;28;20065;-15
2022/05/01 02:57:38;;;;;;;11.63;8.60;;;14.10;63.60;;;;;;4993938;28;20030;-16
2022/05/01 03:00:05;;;;;;;10.00;7.45;;;14.10;64.20;;;;;;4994132;28;20180;-17
2022/05/01 03:02:32;;;;;;;10.50;7.70;;;14.00;64.00;;;;;;4993517;28;20084;-15
2022/05/01 03:04:58;;;;;;;11.25;7.43;;;14.00;63.90;;;;;;4993787;28;20042;-17
2022/05/01 03:07:25;;;;;;;12.15;8.10;;;14.00;64.20;;;;;;4994073;28;20437;-16
2022/05/01 03:09:52;;;;;;;12.52;8.02;;;13.90;64.50;;;;;;4993691;28;20154;-14
2022/05/01 03:12:19;;;;;;;11.50;8.35;;;13.90;65.20;;;;;;4993576;28;20038;-17
2022/05/01 03:14:46;;;;;;;12.70;9.05;;;13.90;64.50;;;;;;4994022;28;20027;-17
2022/05/01 03:17:12;;;;;;;16.15;9.13;;;13.90;65.00;;;;;;4994346;28;20036;-16
2022/05/01 03:22:22;;;;;;;13.05;8.77;;;13.80;65.20;;;;;;4993669;28;20037;-16
2022/05/01 03:24:48;;;;;;;13.25;8.57;;;13.80;65.10;;;;;;4992473;28;20023;-15
2022/05/01 03:27:14;;;;;;;13.80;9.32;;;13.80;65.00;;;;;;4993948;28;20057;-17
2022/05/01 03:29:40;;;;;;;16.30;10.98;;;13.80;65.10;;;;;;4993934;28;20482;-17
2022/05/01 03:32:07;;;;;;;12.55;8.43;;;13.70;65.60;;;;;;4993886;28;20116;-14
2022/05/01 03:34:38;;;;;;;12.10;8.27;;;13.70;65.80;;;;;;4993347;28;20371;-14
2022/05/01 03:37:06;;;;;;;15.68;10.57;;;13.60;65.50;;;;;;4993858;28;20069;-15
2022/05/01 03:39:36;;;;;;;17.45;10.85;;;13.60;65.50;;;;;;4993548;28;20545;-17
2022/05/01 03:42:04;;;;;;;12.18;8.82;;;13.50;65.80;;;;;;4993380;28;20045;-15
2022/05/01 03:44:30;;;;;;;13.90;9.63;;;13.50;65.80;;;;;;4993608;28;20053;-13
2022/05/01 03:46:56;;;;;;;12.80;9.38;;;13.50;66.00;;;;;;4993448;28;20478;-15
2022/05/01 03:49:22;;;;;;;15.10;8.90;;;13.40;66.10;;;;;;4993360;28;20045;-16
2022/05/01 03:51:48;;;;;;;13.65;8.85;;;13.40;66.10;;;;;;4993557;28;20450;-16
2022/05/01 03:54:15;;;;;;;14.00;9.63;;;13.40;66.00;;;;;;4993364;28;20093;-17
2022/05/01 03:56:41;;;;;;;15.23;9.48;;;13.40;66.30;;;;;;4993636;28;20034;-17
2022/05/01 03:59:07;;;;;;;19.08;12.50;;;13.40;66.30;;;;;;4993382;28;20025;-15
2022/05/01 04:01:33;;;;;;;13.98;9.30;;;13.40;66.30;;;;;;4993292;28;20131;-16
2022/05/01 04:04:00;;;;;;;13.48;9.32;;;13.40;66.60;;;;;;4993518;28;20035;-14
2022/05/01 04:06:26;;;;;;;13.80;10.18;;;13.40;67.00;;;;;;4991690;28;20046;-16
2022/05/01 04:08:52;;;;;;;15.90;10.38;;;13.40;66.50;;;;;;4993335;28;20022;-15
2022/05/01 04:11:19;;;;;;;14.32;8.93;;;13.40;66.70;;;;;;4992018;28;20042;-16
2022/05/01 04:13:45;;;;;;;15.50;8.80;;;13.40;67.00;;;;;;4993497;28;20050;-16
2022/05/01 04:16:11;;;;;;;13.00;8.25;;;13.40;66.80;;;;;;4993179;28;20586;-14
2022/05/01 04:18:37;;;;;;;13.18;8.23;;;13.40;66.80;;;;;;4993015;28;20033;-15
2022/05/01 04:21:03;;;;;;;11.38;8.10;;;13.40;66.70;;;;;;4993671;28;20541;-17
2022/05/01 04:23:29;;;;;;;10.88;7.13;;;13.40;66.90;;;;;;4995905;28;20041;-15
2022/05/01 04:25:55;;;;;;;9.55;7.55;;;13.40;67.00;;;;;;4996983;28;20030;-16
2022/05/01 04:28:21;;;;;;;11.68;8.15;;;13.40;66.90;;;;;;4996393;28;20030;-15
2022/05/01 04:30:50;;;;;;;10.70;7.38;;;13.40;67.40;;;;;;4996569;28;20027;-16
2022/05/01 04:33:16;;;;;;;11.82;7.68;;;13.40;67.20;;;;;;4996490;28;20445;-15
2022/05/01 04:35:45;;;;;;;10.27;7.28;;;13.40;66.70;;;;;;4996344;28;20394;-15
2022/05/01 04:38:20;;;;;;;11.15;7.10;;;13.50;66.50;;;;;;4996350;28;20032;-16
2022/05/01 04:40:48;;;;;;;12.18;7.38;;;13.50;66.50;;;;;;4997066;28;20026;-14
2022/05/01 04:43:18;;;;;;;9.65;6.35;;;13.50;66.40;;;;;;4996711;28;20133;-14
2022/05/01 04:45:46;;;;;;;14.68;9.05;;;13.60;66.50;;;;;;4996298;28;20023;-15
2022/05/01 04:48:13;;;;;;;12.65;8.55;;;13.60;66.50;;;;;;4996523;28;20026;-14
2022/05/01 04:50:40;;;;;;;12.43;7.97;;;13.60;66.50;;;;;;4995982;28;20486;-13
2022/05/01 04:53:09;;;;;;;13.50;8.57;;;13.60;66.40;;;;;;4996433;28;20122;-14
2022/05/01 04:55:37;;;;;;;12.35;7.30;;;13.70;66.30;;;;;;4996079;28;20035;-16
2022/05/01 04:58:03;;;;;;;15.98;9.70;;;13.70;67.10;;;;;;4996062;28;20042;-16
2022/05/01 05:00:30;;;;;;;12.35;9.02;;;13.90;66.50;;;;;;4996248;28;20027;-14
2022/05/01 05:02:57;;;;;;;12.48;8.50;;;13.90;66.10;;;;;;4996035;28;20033;-15
2022/05/01 05:05:26;;;;;;;11.15;7.88;;;14.00;66.00;;;;;;4995757;28;20058;-15
2022/05/01 05:07:52;;;;;;;12.50;7.95;;;14.20;66.00;;;;;;4996204;28;20122;-15
2022/05/01 05:10:18;;;;;;;15.80;10.10;;;14.30;65.40;;;;;;4994651;28;20471;-14
2022/05/01 05:12:47;;;;;;;11.93;7.63;;;14.50;65.10;;;;;;4996140;28;20027;-14
2022/05/01 05:15:20;;;;;;;10.82;8.07;;;14.60;64.80;;;;;;4995708;28;20033;-14
2022/05/01 05:17:46;;;;;;;12.43;8.65;;;14.80;64.30;;;;;;4995779;28;20493;-16
2022/05/01 05:20:13;;;;;;;10.32;7.35;;;14.90;64.00;;;;;;4995982;28;20052;-14
2022/05/01 05:22:43;;;;;;;13.00;7.72;;;15.10;63.60;;;;;;4995542;28;20026;-14
2022/05/01 05:25:11;;;;;;;10.90;7.45;;;15.20;63.40;;;;;;4995836;28;20029;-16
2022/05/01 05:27:37;;;;;;;10.45;7.45;;;15.40;63.40;;;;;;4995530;28;20081;-15
2022/05/01 05:30:04;;;;;;;8.30;5.80;;;15.60;63.20;;;;;;4995598;28;20026;-16
2022/05/01 05:32:30;;;;;;;11.05;6.45;;;15.70;62.80;;;;;;4995575;28;20023;-15
2022/05/01 05:34:56;;;;;;;9.52;6.47;;;15.90;62.50;;;;;;4996215;28;20133;-15
2022/05/01 05:37:22;;;;;;;9.95;6.60;;;16.10;61.90;;;;;;4995779;28;20457;-14
2022/05/01 05:39:49;;;;;;;8.98;5.55;;;16.20;61.50;;;;;;4995269;28;20033;-14
2022/05/01 05:42:17;;;;;;;9.25;6.03;;;16.20;61.30;;;;;;4994965;28;20038;-16
2022/05/01 05:44:43;;;;;;;7.40;5.10;;;16.30;60.80;;;;;;4995182;28;20386;-15
2022/05/01 05:47:10;;;;;;;8.68;5.70;;;16.40;60.60;;;;;;4995127;28;20568;-15
2022/05/01 05:49:35;;;;;;;9.57;5.88;;;16.40;60.50;;;;;;4995185;28;20027;-16
2022/05/01 05:52:01;;;;;;;8.57;5.07;;;16.50;60.30;;;;;;4995095;28;20053;-15
2022/05/01 05:54:28;;;;;;;6.97;4.65;;;16.60;60.10;;;;;;4994900;28;20394;-13
2022/05/01 05:56:54;;;;;;;10.60;5.30;;;16.60;59.70;;;;;;4994958;28;20037;-16
2022/05/01 05:59:20;;;;;;;9.63;6.15;;;16.70;59.60;;;;;;4995164;28;20046;-13
2022/05/01 06:01:45;;;;;;;9.43;5.53;;;16.70;59.70;;;;;;4994857;28;20505;-16
2022/05/01 06:04:11;;;;;;;7.95;4.88;;;16.70;59.70;;;;;;4994461;28;20039;-15
2022/05/01 06:06:37;;;;;;;8.25;4.85;;;16.80;59.80;;;;;;4994753;28;20033;-15
2022/05/01 06:09:03;;;;;;;7.30;4.35;;;16.90;59.80;;;;;;4994974;28;20113;-14
2022/05/01 06:11:29;;;;;;;5.80;4.18;;;16.90;59.70;;;;;;4994698;28;20356;-13
2022/05/01 06:13:55;;;;;;;7.55;3.90;;;17.00;59.70;;;;;;4994648;28;20018;-16
2022/05/01 06:16:21;;;;;;;6.10;4.10;;;17.20;59.40;;;;;;4994353;28;20031;-16
2022/05/01 06:18:47;;;;;;;6.80;3.90;;;17.40;58.80;;;;;;4995135;28;20030;-15
2022/05/01 06:21:13;;;;;;;6.82;4.35;;;17.50;58.40;;;;;;4995027;28;20077;-16
2022/05/01 06:23:40;;;;;;;7.53;4.13;;;17.80;58.00;;;;;;4994379;28;20073;-14
2022/05/01 06:26:07;;;;;;;7.10;4.32;;;18.00;57.40;;;;;;4994429;28;20030;-15
2022/05/01 06:28:33;;;;;;;6.60;4.50;;;18.20;56.50;;;;;;4994209;28;20560;-15
2022/05/01 06:31:02;;;;;;;6.93;3.95;;;18.40;55.80;;;;;;4993151;28;20474;-16
2022/05/01 06:33:29;;;;;;;7.70;4.35;;;18.50;55.80;;;;;;4994562;28;20109;-14
2022/05/01 06:35:55;;;;;;;10.70;7.97;;;18.70;55.00;;;;;;4994179;28;20113;-16
2022/05/01 06:38:22;;;;;;;15.77;12.45;;;18.90;54.60;;;;;;4994642;28;20023;-15
2022/05/01 06:40:49;;;;;;;11.27;7.93;;;19.00;54.00;;;;;;4994458;28;20050;-15
2022/05/01 06:43:17;;;;;;;7.72;5.45;;;19.00;53.40;;;;;;4994360;28;20030;-17
2022/05/01 06:45:43;;;;;;;9.93;4.50;;;19.00;53.10;;;;;;4993616;28;20114;-14
2022/05/01 06:48:10;;;;;;;7.70;5.20;;;19.10;52.90;;;;;;4994088;28;20072;-13
2022/05/01 06:50:37;;;;;;;8.68;4.53;;;19.10;52.40;;;;;;4993762;28;20363;-16
2022/05/01 06:53:05;;;;;;;6.50;4.43;;;19.20;52.70;;;;;;4994054;28;20034;-16
2022/05/01 06:55:31;;;;;;;5.55;3.75;;;19.30;52.70;;;;;;4994208;28;20513;-15
2022/05/01 06:57:57;;;;;;;6.60;4.13;;;19.40;52.40;;;;;;4994147;28;20033;-16
2022/05/01 07:00:24;;;;;;;4.65;3.58;;;19.50;52.40;;;;;;4992553;28;20112;-16
2022/05/01 07:02:51;;;;;;;5.82;4.40;;;19.70;52.00;;;;;;4994281;28;20030;-16
2022/05/01 07:05:18;;;;;;;6.35;4.93;;;19.80;51.90;;;;;;4993629;28;20061;-15
2022/05/01 07:07:46;;;;;;;6.18;4.78;;;19.80;50.50;;;;;;4993721;28;20060;-15
2022/05/01 07:10:13;;;;;;;9.32;4.35;;;19.80;51.10;;;;;;4993739;28;20038;-16
2022/05/01 07:12:39;;;;;;;7.75;4.70;;;19.70;51.10;;;;;;4994300;28;20027;-17
2022/05/01 07:15:06;;;;;;;5.95;4.13;;;19.70;51.20;;;;;;4993780;28;20034;-16
2022/05/01 07:17:33;;;;;;;3.85;3.08;;;19.70;51.60;;;;;;4994065;28;20085;-15
2022/05/01 07:20:00;;;;;;;7.70;4.03;;;19.70;51.30;;;;;;4994059;28;20037;-14
2022/05/01 07:22:26;;;;;;;7.85;4.78;;;19.70;51.30;;;;;;4993359;28;20101;-16
2022/05/01 07:24:52;;;;;;;7.05;4.05;;;19.70;50.50;;;;;;4992408;28;20030;-16
2022/05/01 07:27:18;;;;;;;7.35;4.43;;;19.80;50.60;;;;;;4994015;28;20038;-14
2022/05/01 07:29:44;;;;;;;8.25;5.20;;;19.90;50.30;;;;;;4993625;28;20034;-17
2022/05/01 07:32:10;;;;;;;7.35;5.55;;;20.00;50.20;;;;;;4994199;28;20027;-16
2022/05/01 07:34:37;;;;;;;7.28;4.75;;;20.20;49.90;;;;;;4993376;28;20030;-16
2022/05/01 07:37:04;;;;;;;7.03;4.78;;;20.40;49.60;;;;;;4993467;28;20092;-17
2022/05/01 07:39:31;;;;;;;6.30;4.15;;;20.80;49.40;;;;;;4993890;28;20486;-16
2022/05/01 07:41:57;;;;;;;7.85;5.10;;;21.10;48.90;;;;;;4994125;28;20091;-16
2022/05/01 07:44:23;;;;;;;7.82;4.78;;;21.40;48.90;;;;;;4993759;28;20489;-16
2022/05/01 07:46:51;;;;;;;7.80;5.03;;;21.70;48.40;;;;;;4993476;28;20435;-16
2022/05/01 07:49:18;;;;;;;7.93;4.38;;;21.90;46.90;;;;;;4993418;28;20390;-15
2022/05/01 07:51:44;;;;;;;6.03;4.50;;;21.70;46.50;;;;;;4993322;28;20482;-17
2022/05/01 07:54:10;;;;;;;8.20;4.68;;;21.70;47.40;;;;;;4993464;28;20018;-16
2022/05/01 07:56:36;;;;;;;8.77;4.90;;;22.00;47.20;;;;;;4993473;28;20037;-15
2022/05/01 07:59:03;;;;;;;5.93;4.28;;;22.20;45.30;;;;;;4996627;28;20562;-14
2022/05/01 08:01:29;;;;;;;9.32;4.93;;;22.30;44.60;;;;;;4997416;28;20019;-13
2022/05/01 08:06:39;;;;;;;7.15;4.60;;;22.80;42.10;;;;;;4997330;28;20149;-14
2022/05/01 08:09:05;;;;;;;8.52;4.78;;;22.90;41.00;;;;;;4996967;28;20044;-14
2022/05/01 08:11:32;;;;;;;8.73;5.03;;;22.80;41.10;;;;;;4997538;28;20105;-14
2022/05/01 08:13:57;;;;;;;8.23;5.53;;;23.00;42.10;;;;;;4997136;28;20019;-16
2022/05/01 08:16:24;;;;;;;6.32;4.93;;;23.10;41.20;;;;;;4996839;28;20360;-15
2022/05/01 08:21:54;;;;;;;6.43;4.57;;;23.20;40.50;;;;;;4955964;29;20039;-15
2022/05/01 08:24:20;;;;;;;8.48;4.78;;;23.60;41.10;;;;;;4955656;29;20131;-13
2022/05/01 08:26:49;;;;;;;8.85;5.65;;;23.80;40.50;;;;;;4974959;28;20034;-14
2022/05/01 08:29:16;;;;;;;8.40;5.10;;;23.80;40.90;;;;;;4996851;28;20113;-14
2022/05/01 08:31:43;;;;;;;7.40;5.30;;;24.00;37.90;;;;;;4996823;28;20533;-14
2022/05/01 08:34:10;;;;;;;5.82;4.50;;;24.10;40.10;;;;;;4996512;28;20029;-15
2022/05/01 08:36:37;;;;;;;7.88;4.72;;;24.00;37.70;;;;;;4996250;28;20030;-15
2022/05/01 08:39:04;;;;;;;9.60;4.70;;;24.10;39.60;;;;;;4996738;28;20034;-14
2022/05/01 08:41:31;;;;;;;8.80;4.65;;;24.00;40.70;;;;;;4996405;28;20037;-14
2022/05/01 08:44:00;;;;;;;7.60;4.88;;;23.80;39.60;;;;;;4996304;28;20438;-14
2022/05/01 08:46:31;;;;;;;11.68;4.78;;;23.60;40.00;;;;;;4996217;28;20076;-15
2022/05/01 08:49:05;;;;;;;7.32;4.80;;;23.50;38.90;;;;;;4996636;28;20070;-15
2022/05/01 08:51:39;;;;;;;8.23;5.10;;;23.50;39.70;;;;;;4996482;28;20026;-14
2022/05/01 08:54:07;;;;;;;6.88;4.75;;;23.80;39.70;;;;;;4996216;28;20027;-16
2022/05/01 08:56:35;;;;;;;6.03;4.43;;;24.00;40.30;;;;;;4996210;28;20045;-15
2022/05/01 08:59:06;;;;;;;7.15;5.03;;;24.00;38.40;;;;;;4996416;28;20030;-13
2022/05/01 09:01:34;;;;;;;6.57;4.68;;;24.00;40.80;;;;;;4996105;28;20036;-13
2022/05/01 09:04:01;;;;;;;8.00;5.45;;;23.90;39.40;;;;;;4995922;28;20058;-13
2022/05/01 09:06:29;;;;;;;6.63;4.97;;;24.00;42.10;;;;;;4995550;28;20055;-14
2022/05/01 09:08:57;;;;;;;7.20;5.18;;;24.00;38.30;;;;;;4996115;28;20462;-12
2022/05/01 09:14:08;;;;;;;7.13;4.93;;;24.30;40.70;;;;;;4996189;28;20053;-15
2022/05/01 09:16:39;;;;;;;6.45;4.57;;;24.60;39.80;;;;;;4995916;28;20049;-15
2022/05/01 09:19:05;;;;;;;7.80;4.60;;;24.90;40.20;;;;;;4995766;28;20030;-14
2022/05/01 09:21:51;;;;;;;6.05;4.07;;;24.90;37.90;;;;;;4995618;28;20034;-14
2022/05/01 09:24:28;;;;;;;7.10;4.28;;;24.60;37.10;;;;;;4995438;28;20034;-13
2022/05/01 09:26:55;;;;;;;6.75;4.68;;;24.50;39.90;;;;;;4995845;28;20026;-13
2022/05/01 09:29:23;;;;;;;8.38;4.68;;;24.40;39.30;;;;;;4995829;28;20046;-14
2022/05/01 09:31:53;;;;;;;13.77;5.30;;;24.10;37.20;;;;;;4995449;28;20117;-14
2022/05/01 09:34:29;;;;;;;8.48;5.43;;;24.00;37.30;;;;;;4995170;28;20129;-16
2022/05/01 09:37:03;;;;;;;7.50;4.65;;;23.80;38.40;;;;;;4995279;28;20030;-15
2022/05/01 09:39:30;;;;;;;;;;;23.70;41.40;;;;;;4996117;28;20129;-13
2022/05/01 09:42:16;;;;;;;8.48;5.78;;;23.70;37.40;;;;;;4995558;28;19956;-15
2022/05/01 09:44:43;;;;;;;6.45;4.88;;;23.70;40.50;;;;;;4995301;28;20046;-16
2022/05/01 09:47:09;;;;;;;6.90;4.93;;;24.10;39.40;;;;;;4995155;28;20105;-15
2022/05/01 09:49:51;;;;;;;5.57;4.30;;;24.20;38.00;;;;;;4995115;28;20034;-14
2022/05/01 09:52:19;;;;;;;7.05;4.55;;;24.70;37.30;;;;;;4994986;28;20037;-14
2022/05/01 09:55:05;;;;;;;8.35;4.60;;;24.90;38.70;;;;;;4995031;28;20482;-15
2022/05/01 09:57:32;;;;;;;6.53;4.55;;;24.90;38.80;;;;;;4995748;28;20053;-15
2022/05/01 09:59:58;;;;;;;7.70;4.57;;;25.00;38.50;;;;;;4995454;28;20103;-13
2022/05/01 10:02:30;;;;;;;7.03;4.97;;;25.20;38.60;;;;;;4994609;28;20490;-15
2022/05/01 10:05:04;;;;;;;9.30;5.10;;;25.20;38.90;;;;;;4994842;28;20054;-13
2022/05/01 10:07:37;;;;;;;5.82;4.35;;;25.10;38.30;;;;;;4995048;28;20038;-14
2022/05/01 10:10:08;;;;;;;6.00;4.70;;;24.90;37.60;;;;;;4994763;28;20478;-15
2022/05/01 10:12:45;;;;;;;6.05;4.47;;;25.00;36.70;;;;;;4994571;28;20065;-13
2022/05/01 10:15:11;;;;;;;7.38;5.50;;;25.20;37.30;;;;;;4995079;28;20014;-13
2022/05/01 10:17:39;;;;;;;6.88;4.50;;;25.50;37.50;;;;;;4994907;28;20050;-14
2022/05/01 10:20:05;;;;;;;7.20;4.97;;;25.10;37.70;;;;;;4993969;28;20034;-13
2022/05/01 10:22:32;;;;;;;5.82;4.80;;;25.00;38.80;;;;;;4994222;28;20030;-14
2022/05/01 10:24:58;;;;;;;6.28;4.90;;;25.10;38.50;;;;;;4994498;28;20034;-14
2022/05/01 10:27:59;;;;;;;5.95;4.75;;;25.30;38.10;;;;;;4994415;28;20034;-15
2022/05/01 10:33:41;;;;;;;7.80;4.97;;;26.00;37.30;;;;;;4954008;29;20101;-15
2022/05/01 10:36:25;;;;;;;6.40;4.63;;;26.30;37.80;;;;;;4954160;29;20482;-15
2022/05/01 10:39:09;;;;;;;6.88;5.10;;;26.50;36.50;;;;;;4953596;29;20039;-15
2022/05/01 10:41:39;;;;;;;;;;;25.80;35.20;;;;;;4954126;29;20063;-12
2022/05/01 10:44:05;;;;;;;6.07;4.80;;;25.50;36.90;;;;;;4953431;29;19921;-14
2022/05/01 10:46:32;;;;;;;7.93;5.07;;;25.50;37.50;;;;;;4937172;29;20487;-14
2022/05/01 10:49:05;;;;;;;6.00;4.60;;;25.90;35.90;;;;;;4953395;29;20034;-14
2022/05/01 10:51:31;;;;;;;9.77;5.10;;;26.10;35.80;;;;;;4953366;29;20106;-14
2022/05/01 10:54:15;;;;;;;7.97;4.80;;;26.60;37.10;;;;;;4953511;29;20111;-13
2022/05/01 10:56:49;;;;;;;6.43;4.50;;;27.10;33.90;;;;;;4953216;29;20078;-14
2022/05/01 10:59:30;;;;;;;5.85;4.70;;;27.40;32.50;;;;;;4953257;29;20063;-15
2022/05/01 11:01:59;;;;;;;5.22;4.45;;;27.60;34.30;;;;;;4953054;29;20047;-14
2022/05/01 11:04:28;;;;;;;7.50;5.47;;;27.50;36.50;;;;;;4952610;29;20038;-14
2022/05/01 11:06:56;;;;;;;8.10;4.95;;;27.10;33.90;;;;;;4964546;28;20035;-13
2022/05/01 11:09:23;;;;;;;8.85;5.20;;;27.00;33.80;;;;;;4974440;28;20490;-16
2022/05/01 11:11:59;;;;;;;7.55;4.90;;;27.00;34.70;;;;;;4974966;28;20507;-14
2022/05/01 11:14:38;;;;;;;6.40;4.72;;;26.80;32.00;;;;;;4974266;28;20027;-15
2022/05/01 11:17:05;;;;;;;8.23;5.10;;;26.70;34.70;;;;;;4974581;28;20034;-13
2022/05/01 11:19:46;;;;;;;5.45;4.68;;;26.80;33.90;;;;;;4974516;28;20027;-14
2022/05/01 11:22:13;;;;;;;6.43;4.93;;;27.10;32.60;;;;;;4974303;28;20034;-13
2022/05/01 11:24:45;;;;;;;6.20;4.90;;;27.20;34.00;;;;;;4974518;28;20031;-15
2022/05/01 11:27:16;;;;;;;6.68;4.80;;;27.50;33.20;;;;;;4974258;28;20090;-14
2022/05/01 11:30:06;;;;;;;7.82;4.60;;;28.10;33.40;;;;;;4974251;28;20026;-14
2022/05/01 11:32:52;;;;;;;7.97;4.40;;;28.80;33.10;;;;;;4976538;28;20038;-14
2022/05/01 11:35:21;;;;;;;6.72;5.15;;;29.20;32.30;;;;;;4978158;28;20026;-13
2022/05/01 11:37:48;;;;;;;7.07;5.15;;;29.20;32.20;;;;;;4978302;28;20030;-14
2022/05/01 11:40:18;;;;;;;5.28;4.78;;;28.40;32.60;;;;;;4978015;28;20038;-13
2022/05/01 11:42:44;;;;;;;7.13;5.15;;;27.80;32.20;;;;;;4977920;28;20031;-13
2022/05/01 11:45:11;;;;;;;7.03;5.07;;;26.90;32.50;;;;;;4978296;28;20423;-14
2022/05/01 11:47:38;;;;;;;7.40;5.07;;;26.40;35.00;;;;;;4978286;28;20102;-14
2022/05/01 11:50:05;;;;;;;8.48;5.47;;;26.00;35.20;;;;;;4977898;28;20031;-14
2022/05/01 11:52:36;;;;;;;6.40;5.10;;;26.20;36.80;;;;;;4977689;28;20018;-14
2022/05/01 11:55:07;;;;;;;6.18;5.00;;;26.60;34.80;;;;;;4977800;28;20493;-13
2022/05/01 12:02:24;;;;;;;6.78;5.07;;;28.00;33.40;;;;;;4978145;28;20128;-14
2022/05/01 12:03:13;;;;;;;6.20;5.05;;;28.70;33.50;;;;;;4977601;28;20031;-14
2022/05/01 12:05:47;;;;;;;8.07;5.57;;;28.70;32.70;;;;;;4989711;28;20066;-13
2022/05/01 12:08:14;;;;;;;6.22;5.20;;;28.50;33.90;;;;;;4996951;28;20038;-14
2022/05/01 12:10:42;;;;;;;6.97;5.15;;;27.90;32.90;;;;;;4997356;28;20053;-14
2022/05/01 12:13:22;;;;;;;6.25;5.30;;;27.40;34.00;;;;;;4997279;28;20101;-14
2022/05/01 12:15:49;;;;;;;6.47;5.03;;;26.40;34.80;;;;;;4997222;28;20029;-14
2022/05/01 12:18:18;;;;;;;8.38;5.57;;;26.40;34.80;;;;;;4996595;28;20046;-14
2022/05/01 12:20:45;;;;;;;7.82;5.07;;;27.00;35.90;;;;;;4997116;28;20030;-14
2022/05/01 12:23:16;;;;;;;6.45;5.05;;;27.70;34.40;;;;;;4996587;28;20035;-15
2022/05/01 12:25:44;;;;;;;5.53;4.78;;;28.20;32.70;;;;;;4996722;28;20038;-15
2022/05/01 12:28:11;;;;;;;5.35;4.60;;;27.90;33.40;;;;;;4996673;28;20034;-13
2022/05/01 12:30:40;;;;;;;7.70;5.18;;;27.40;34.90;;;;;;4995225;28;20026;-14
2022/05/01 12:33:06;;;;;;;6.43;5.57;;;26.60;32.00;;;;;;4996577;28;20050;-13
2022/05/01 12:35:55;;;;;;;6.15;4.85;;;25.80;33.20;;;;;;4996587;28;20065;-14
2022/05/01 12:38:25;;;;;;;6.00;5.22;;;25.50;35.20;;;;;;4996342;28;20057;-15
2022/05/01 12:43:59;;;;;;;7.53;5.50;;;25.40;36.80;;;;;;4995951;28;20034;-13
2022/05/01 12:46:29;;;;;;;6.68;5.75;;;26.00;36.50;;;;;;4995705;28;20101;-13
2022/05/01 12:48:58;;;;;;;6.65;5.13;;;26.40;36.10;;;;;;4996621;28;20033;-13
2022/05/01 12:51:36;;;;;;;6.28;5.05;;;26.40;36.60;;;;;;4996130;28;20040;-14
2022/05/01 12:54:17;;;;;;;5.50;5.00;;;26.10;34.50;;;;;;4996607;28;20034;-14
2022/05/01 12:56:47;;;;;;;7.30;5.32;;;25.90;36.50;;;;;;4996508;28;20070;-14
2022/05/01 12:59:27;;;;;;;6.10;4.90;;;25.40;35.60;;;;;;4996415;28;20184;-14
2022/05/01 13:01:57;;;;;;;6.03;5.00;;;25.30;36.70;;;;;;4996083;28;20034;-14
2022/05/01 13:04:30;;;;;;;5.95;4.78;;;25.20;36.40;;;;;;4995421;28;20085;-15
2022/05/01 13:06:57;;;;;;;6.25;4.30;;;25.20;35.60;;;;;;4996490;28;20062;-13
2022/05/01 13:09:23;;;;;;;8.02;5.10;;;25.00;36.40;;;;;;4996493;28;20030;-14
2022/05/01 13:12:01;;;;;;;8.57;5.28;;;24.70;37.40;;;;;;4995868;28;20478;-13
2022/05/01 13:14:33;;;;;;;7.18;4.80;;;24.00;37.70;;;;;;4995633;28;20050;-13
2022/05/01 13:17:13;;;;;;;7.40;5.07;;;23.60;38.60;;;;;;4995926;28;20120;-14